sensor_id;sensor_type;location;lat;lon;timestamp;pressure;altitude;pressure_sealevel;temperature;humidity
34586;BME280;20816;50.950;11.108;2023-03-21T00:01:03;98589.88;;;8.44;89.05
34586;BME280;20816;50.950;11.108;2023-03-21T00:03:31;98594.28;;;8.42;89.81
34586;BME280;20816;50.950;11.108;2023-03-21T00:06:04;98590.81;;;8.40;89.57
34586;BME280;20816;50.950;11.108;2023-03-21T00:08:31;98589.06;;;8.40;89.96
34586;BME280;20816;50.950;11.108;2023-03-21T00:11:01;98591.69;;;8.37;90.50
34586;BME280;20816;50.950;11.108;2023-03-21T00:13:29;98594.34;;;8.34;91.02
34586;BME280;20816;50.950;11.108;2023-03-21T00:16:04;98592.47;;;8.47;90.68
34586;BME280;20816;50.950;11.108;2023-03-21T00:18:48;98595.16;;;8.41;91.25
34586;BME280;20816;50.950;11.108;2023-03-21T00:21:19;98594.28;;;8.42;91.69
34586;BME280;20816;50.950;11.108;2023-03-21T00:24:06;98582.97;;;8.40;92.17
34586;BME280;20816;50.950;11.108;2023-03-21T00:26:33;98582.09;;;8.39;92.85
34586;BME280;20816;50.950;11.108;2023-03-21T00:29:01;98575.09;;;8.40;93.06
34586;BME280;20816;50.950;11.108;2023-03-21T00:31:27;98575.94;;;8.42;93.09
34586;BME280;20816;50.950;11.108;2023-03-21T00:33:54;98581.22;;;8.37;93.77
34586;BME280;20816;50.950;11.108;2023-03-21T00:36:24;98581.28;;;8.33;94.30
34586;BME280;20816;50.950;11.108;2023-03-21T00:38:52;98581.22;;;8.37;93.90
34586;BME280;20816;50.950;11.108;2023-03-21T00:41:19;98574.19;;;8.42;94.04
34586;BME280;20816;50.950;11.108;2023-03-21T00:44:05;98570.72;;;8.40;93.93
34586;BME280;20816;50.950;11.108;2023-03-21T00:46:32;98563.75;;;8.39;93.99
34586;BME280;20816;50.950;11.108;2023-03-21T00:49:14;98557.47;;;8.51;92.95
34586;BME280;20816;50.950;11.108;2023-03-21T00:51:46;98568.09;;;8.42;92.98
34586;BME280;20816;50.950;11.108;2023-03-21T00:54:16;98559.44;;;8.34;93.78
34586;BME280;20816;50.950;11.108;2023-03-21T00:56:43;98555.88;;;8.41;93.19
34586;BME280;20816;50.950;11.108;2023-03-21T00:59:09;98552.41;;;8.39;93.22
34586;BME280;20816;50.950;11.108;2023-03-21T01:01:36;98556.66;;;8.46;92.43
34586;BME280;20816;50.950;11.108;2023-03-21T01:04:05;98555.94;;;8.35;93.18
34586;BME280;20816;50.950;11.108;2023-03-21T01:06:36;98548.03;;;8.39;92.62
34586;BME280;20816;50.950;11.108;2023-03-21T01:09:11;98547.94;;;8.46;92.70
34586;BME280;20816;50.950;11.108;2023-03-21T01:11:40;98552.41;;;8.39;92.87
34586;BME280;20816;50.950;11.108;2023-03-21T01:14:07;98541.94;;;8.39;92.57
34586;BME280;20816;50.950;11.108;2023-03-21T01:16:48;98537.56;;;8.39;92.48
34586;BME280;20816;50.950;11.108;2023-03-21T01:19:18;98543.69;;;8.37;92.84
34586;BME280;20816;50.950;11.108;2023-03-21T01:22:04;98540.25;;;8.32;93.00
34586;BME280;20816;50.950;11.108;2023-03-21T01:24:31;98538.47;;;8.34;92.88
34586;BME280;20816;50.950;11.108;2023-03-21T01:27:08;98538.56;;;8.28;93.20
34586;BME280;20816;50.950;11.108;2023-03-21T01:29:35;98540.31;;;8.27;93.43
34586;BME280;20816;50.950;11.108;2023-03-21T01:32:01;98536.75;;;8.33;93.66
34586;BME280;20816;50.950;11.108;2023-03-21T01:34:28;98536.78;;;8.30;93.66
34586;BME280;20816;50.950;11.108;2023-03-21T01:36:55;98532.34;;;8.36;93.23
34586;BME280;20816;50.950;11.108;2023-03-21T01:39:23;98531.47;;;8.39;92.79
34586;BME280;20816;50.950;11.108;2023-03-21T01:41:50;98523.66;;;8.33;92.97
34586;BME280;20816;50.950;11.108;2023-03-21T01:44:18;98523.75;;;8.25;93.40
34586;BME280;20816;50.950;11.108;2023-03-21T01:46:46;98523.66;;;8.33;93.10
34586;BME280;20816;50.950;11.108;2023-03-21T01:49:37;98525.34;;;8.38;93.15
34586;BME280;20816;50.950;11.108;2023-03-21T01:52:08;98521.91;;;8.33;93.13
34586;BME280;20816;50.950;11.108;2023-03-21T01:54:43;98501.81;;;8.34;93.16
34586;BME280;20816;50.950;11.108;2023-03-21T01:57:15;98522.78;;;8.34;92.22
34586;BME280;20816;50.950;11.108;2023-03-21T01:59:44;98517.66;;;8.25;93.67
34586;BME280;20816;50.950;11.108;2023-03-21T02:02:18;98511.47;;;8.29;92.90
34586;BME280;20816;50.950;11.108;2023-03-21T02:04:46;98510.59;;;8.30;93.22
34586;BME280;20816;50.950;11.108;2023-03-21T02:07:20;98502.75;;;8.31;93.15
34586;BME280;20816;50.950;11.108;2023-03-21T02:09:51;98514.06;;;8.30;93.34
34586;BME280;20816;50.950;11.108;2023-03-21T02:12:18;98501.91;;;8.28;93.71
34586;BME280;20816;50.950;11.108;2023-03-21T02:14:48;98499.22;;;8.32;93.77
34586;BME280;20816;50.950;11.108;2023-03-21T02:17:45;98503.59;;;8.32;93.66
34586;BME280;20816;50.950;11.108;2023-03-21T02:20:38;98496.63;;;8.31;93.75
34586;BME280;20816;50.950;11.108;2023-03-21T02:23:25;98495.75;;;8.32;93.82
34586;BME280;20816;50.950;11.108;2023-03-21T02:26:44;98485.25;;;8.33;93.40
34586;BME280;20816;50.950;11.108;2023-03-21T02:40:38;98474.81;;;8.32;94.01
34586;BME280;20816;50.950;11.108;2023-03-21T02:43:45;98493.13;;;8.32;93.94
34586;BME280;20816;50.950;11.108;2023-03-21T02:46:25;98476.50;;;8.36;94.07
34586;BME280;20816;50.950;11.108;2023-03-21T02:49:14;98478.13;;;8.43;93.75
34586;BME280;20816;50.950;11.108;2023-03-21T02:51:43;98476.47;;;8.37;94.18
34586;BME280;20816;50.950;11.108;2023-03-21T02:54:18;98481.78;;;8.31;94.74
34586;BME280;20816;50.950;11.108;2023-03-21T02:57:07;98487.81;;;8.38;94.66
34586;BME280;20816;50.950;11.108;2023-03-21T02:59:37;98473.81;;;8.40;93.99
34586;BME280;20816;50.950;11.108;2023-03-21T03:02:22;98479.88;;;8.44;94.07
34586;BME280;20816;50.950;11.108;2023-03-21T03:04:50;98487.81;;;8.39;94.17
34586;BME280;20816;50.950;11.108;2023-03-21T03:07:38;98481.72;;;8.39;93.84
34586;BME280;20816;50.950;11.108;2023-03-21T03:18:54;98477.31;;;8.41;94.43
34586;BME280;20816;50.950;11.108;2023-03-21T03:21:35;98478.22;;;8.37;94.93
34586;BME280;20816;50.950;11.108;2023-03-21T03:26:47;98473.75;;;8.45;94.12
34586;BME280;20816;50.950;11.108;2023-03-21T03:29:17;98471.19;;;8.42;94.82
34586;BME280;20816;50.950;11.108;2023-03-21T03:31:55;98468.63;;;8.37;94.79
34586;BME280;20816;50.950;11.108;2023-03-21T03:34:26;98480.00;;;8.35;95.12
34586;BME280;20816;50.950;11.108;2023-03-21T03:36:56;98480.84;;;8.37;95.20
34586;BME280;20816;50.950;11.108;2023-03-21T03:39:32;98474.63;;;8.44;95.67
34586;BME280;20816;50.950;11.108;2023-03-21T03:42:04;98475.44;;;8.49;94.65
34586;BME280;20816;50.950;11.108;2023-03-21T03:44:52;98466.75;;;8.46;94.70
34586;BME280;20816;50.950;11.108;2023-03-21T03:50:10;98467.66;;;8.43;94.67
34586;BME280;20816;50.950;11.108;2023-03-21T03:52:43;98464.19;;;8.42;94.89
34586;BME280;20816;50.950;11.108;2023-03-21T03:55:23;98466.84;;;8.41;94.95
34586;BME280;20816;50.950;11.108;2023-03-21T03:57:53;98466.78;;;8.44;94.87
34586;BME280;20816;50.950;11.108;2023-03-21T04:00:20;98466.75;;;8.47;94.90
34586;BME280;20816;50.950;11.108;2023-03-21T04:02:46;98470.28;;;8.43;94.45
34586;BME280;20816;50.950;11.108;2023-03-21T04:05:13;98473.75;;;8.45;95.03
34586;BME280;20816;50.950;11.108;2023-03-21T04:07:40;98462.41;;;8.45;95.45
34586;BME280;20816;50.950;11.108;2023-03-21T04:10:11;98470.19;;;8.49;95.06
34586;BME280;20816;50.950;11.108;2023-03-21T04:12:37;98461.50;;;8.47;95.00
34586;BME280;20816;50.950;11.108;2023-03-21T04:15:04;98458.09;;;8.42;95.26
34586;BME280;20816;50.950;11.108;2023-03-21T04:17:37;98458.09;;;8.42;95.30
34586;BME280;20816;50.950;11.108;2023-03-21T04:20:05;98448.38;;;8.49;95.24
34586;BME280;20816;50.950;11.108;2023-03-21T04:22:43;98458.84;;;8.49;94.63
34586;BME280;20816;50.950;11.108;2023-03-21T04:25:10;98459.88;;;8.40;95.13
34586;BME280;20816;50.950;11.108;2023-03-21T04:27:49;98445.81;;;8.44;95.19
34586;BME280;20816;50.950;11.108;2023-03-21T04:30:16;98452.78;;;8.45;95.13
34586;BME280;20816;50.950;11.108;2023-03-21T04:32:42;98458.03;;;8.45;94.89
34586;BME280;20816;50.950;11.108;2023-03-21T04:35:09;98456.38;;;8.38;95.33
34586;BME280;20816;50.950;11.108;2023-03-21T04:37:36;98451.16;;;8.39;95.78
34586;BME280;20816;50.950;11.108;2023-03-21T04:40:05;98451.22;;;8.35;96.09
34586;BME280;20816;50.950;11.108;2023-03-21T04:42:37;98451.22;;;8.35;95.93
34586;BME280;20816;50.950;11.108;2023-03-21T04:45:04;98451.16;;;8.38;95.73
34586;BME280;20816;50.950;11.108;2023-03-21T04:47:30;98454.69;;;8.34;95.68
34586;BME280;20816;50.950;11.108;2023-03-21T04:49:57;98456.38;;;8.38;95.83
34586;BME280;20816;50.950;11.108;2023-03-21T04:52:24;98451.22;;;8.35;96.05
34586;BME280;20816;50.950;11.108;2023-03-21T04:54:50;98447.72;;;8.33;95.98
34586;BME280;20816;50.950;11.108;2023-03-21T04:57:17;98449.53;;;8.28;96.26
34586;BME280;20816;50.950;11.108;2023-03-21T04:59:43;98441.69;;;8.28;95.94
34586;BME280;20816;50.950;11.108;2023-03-21T05:02:11;98446.84;;;8.32;96.31
34586;BME280;20816;50.950;11.108;2023-03-21T05:04:38;98450.38;;;8.30;96.29
34586;BME280;20816;50.950;11.108;2023-03-21T05:07:05;98453.81;;;8.33;96.01
34586;BME280;20816;50.950;11.108;2023-03-21T05:09:32;98454.66;;;8.37;96.15
34586;BME280;20816;50.950;11.108;2023-03-21T05:12:03;98452.84;;;8.42;95.94
34586;BME280;20816;50.950;11.108;2023-03-21T05:14:30;98449.44;;;8.34;95.86
34586;BME280;20816;50.950;11.108;2023-03-21T05:16:56;98451.13;;;8.41;95.53
34586;BME280;20816;50.950;11.108;2023-03-21T05:19:28;98450.28;;;8.39;95.43
34586;BME280;20816;50.950;11.108;2023-03-21T05:22:07;98449.44;;;8.34;95.21
34586;BME280;20816;50.950;11.108;2023-03-21T05:24:34;98453.97;;;8.24;96.04
34586;BME280;20816;50.950;11.108;2023-03-21T05:27:04;98441.53;;;8.38;95.87
34586;BME280;20816;50.950;11.108;2023-03-21T05:29:32;98444.22;;;8.34;95.42
34586;BME280;20816;50.950;11.108;2023-03-21T05:32:03;98449.44;;;8.34;95.56
34586;BME280;20816;50.950;11.108;2023-03-21T05:34:30;98440.75;;;8.32;95.99
34586;BME280;20816;50.950;11.108;2023-03-21T05:36:57;98437.19;;;8.37;95.21
34586;BME280;20816;50.950;11.108;2023-03-21T05:39:23;98437.94;;;8.46;95.06
34586;BME280;20816;50.950;11.108;2023-03-21T05:41:50;98445.66;;;8.53;94.65
34586;BME280;20816;50.950;11.108;2023-03-21T05:44:16;98437.91;;;8.49;95.05
34586;BME280;20816;50.950;11.108;2023-03-21T05:46:50;98442.16;;;8.54;94.89
34586;BME280;20816;50.950;11.108;2023-03-21T05:49:17;98446.53;;;8.55;95.64
34586;BME280;20816;50.950;11.108;2023-03-21T05:51:43;98450.88;;;8.56;94.78
34586;BME280;20816;50.950;11.108;2023-03-21T05:54:10;98448.91;;;8.69;93.85
34586;BME280;20816;50.950;11.108;2023-03-21T05:56:44;98449.78;;;8.69;94.07
34586;BME280;20816;50.950;11.108;2023-03-21T05:59:10;98453.94;;;8.83;93.05
34586;BME280;20816;50.950;11.108;2023-03-21T06:01:37;98453.94;;;8.83;93.70
34586;BME280;20816;50.950;11.108;2023-03-21T06:04:03;98451.97;;;8.94;92.90
34586;BME280;20816;50.950;11.108;2023-03-21T06:06:30;98445.63;;;9.07;92.46
34586;BME280;20816;50.950;11.108;2023-03-21T06:08:56;98443.06;;;9.04;92.63
34586;BME280;20816;50.950;11.108;2023-03-21T06:11:28;98449.97;;;9.08;93.34
34586;BME280;20816;50.950;11.108;2023-03-21T06:13:56;98448.06;;;9.16;93.20
34586;BME280;20816;50.950;11.108;2023-03-21T06:16:22;98448.19;;;9.10;92.31
34586;BME280;20816;50.950;11.108;2023-03-21T06:18:49;98455.88;;;9.19;92.70
34586;BME280;20816;50.950;11.108;2023-03-21T06:21:15;98453.97;;;9.27;92.67
34586;BME280;20816;50.950;11.108;2023-03-21T06:23:42;98452.94;;;9.38;91.27
34586;BME280;20816;50.950;11.108;2023-03-21T06:26:10;98458.28;;;9.32;91.74
34586;BME280;20816;50.950;11.108;2023-03-21T06:28:37;98454.53;;;9.45;91.57
34586;BME280;20816;50.950;11.108;2023-03-21T06:31:04;98452.47;;;9.59;91.13
34586;BME280;20816;50.950;11.108;2023-03-21T06:33:31;98451.16;;;9.81;90.53
34586;BME280;20816;50.950;11.108;2023-03-21T06:35:58;98442.13;;;9.95;89.75
34586;BME280;20816;50.950;11.108;2023-03-21T06:38:24;98446.41;;;9.99;89.33
34586;BME280;20816;50.950;11.108;2023-03-21T06:40:51;98441.91;;;10.04;90.10
34586;BME280;20816;50.950;11.108;2023-03-21T06:43:18;98445.13;;;10.17;90.06
34586;BME280;20816;50.950;11.108;2023-03-21T06:45:44;98449.47;;;10.19;89.94
34586;BME280;20816;50.950;11.108;2023-03-21T06:48:11;98451.19;;;10.20;89.49
34586;BME280;20816;50.950;11.108;2023-03-21T06:50:37;98445.81;;;10.26;89.44
34586;BME280;20816;50.950;11.108;2023-03-21T06:53:04;98445.66;;;10.32;88.58
34586;BME280;20816;50.950;11.108;2023-03-21T06:55:31;98447.19;;;10.43;88.57
34586;BME280;20816;50.950;11.108;2023-03-21T06:57:58;98452.00;;;10.61;88.00
34586;BME280;20816;50.950;11.108;2023-03-21T07:00:24;98452.53;;;10.74;86.93
34586;BME280;20816;50.950;11.108;2023-03-21T07:02:51;98461.09;;;10.83;87.57
34586;BME280;20816;50.950;11.108;2023-03-21T07:05:19;98459.88;;;10.97;87.04
34586;BME280;20816;50.950;11.108;2023-03-21T07:07:45;98446.75;;;10.95;85.81
34586;BME280;20816;50.950;11.108;2023-03-21T07:10:12;98451.47;;;11.16;85.25
34586;BME280;20816;50.950;11.108;2023-03-21T07:12:38;98452.66;;;11.37;83.92
34586;BME280;20816;50.950;11.108;2023-03-21T07:15:06;98448.69;;;11.54;83.33
34586;BME280;20816;50.950;11.108;2023-03-21T07:17:33;98448.56;;;11.58;82.68
34586;BME280;20816;50.950;11.108;2023-03-21T07:19:59;98450.50;;;11.51;81.50
34586;BME280;20816;50.950;11.108;2023-03-21T07:22:26;98445.28;;;11.50;82.08
34586;BME280;20816;50.950;11.108;2023-03-21T07:24:53;98453.22;;;11.48;81.59
34586;BME280;20816;50.950;11.108;2023-03-21T07:27:30;98446.03;;;11.54;81.67
34586;BME280;20816;50.950;11.108;2023-03-21T07:29:58;98440.25;;;11.72;81.03
34586;BME280;20816;50.950;11.108;2023-03-21T07:32:25;98437.72;;;11.69;81.52
34586;BME280;20816;50.950;11.108;2023-03-21T07:34:55;98443.78;;;12.02;80.83
34586;BME280;20816;50.950;11.108;2023-03-21T07:37:22;98441.81;;;11.79;80.73
34586;BME280;20816;50.950;11.108;2023-03-21T07:39:49;98441.31;;;11.97;80.29
34586;BME280;20816;50.950;11.108;2023-03-21T07:42:17;98441.56;;;11.88;80.48
34586;BME280;20816;50.950;11.108;2023-03-21T07:44:43;98436.03;;;11.97;80.24
34586;BME280;20816;50.950;11.108;2023-03-21T07:47:10;98431.72;;;11.95;80.75
34586;BME280;20816;50.950;11.108;2023-03-21T07:49:36;98432.03;;;12.14;80.32
34586;BME280;20816;50.950;11.108;2023-03-21T07:52:12;98429.31;;;12.43;80.02
34586;BME280;20816;50.950;11.108;2023-03-21T07:54:38;98424.31;;;12.88;78.61
34586;BME280;20816;50.950;11.108;2023-03-21T07:57:04;98423.41;;;12.89;78.88
34586;BME280;20816;50.950;11.108;2023-03-21T07:59:32;98424.38;;;12.87;78.31
34586;BME280;20816;50.950;11.108;2023-03-21T08:02:00;98420.59;;;12.94;77.85
34586;BME280;20816;50.950;11.108;2023-03-21T08:04:26;98427.72;;;12.92;77.86
34586;BME280;20816;50.950;11.108;2023-03-21T08:06:53;98426.91;;;12.90;78.56
34586;BME280;20816;50.950;11.108;2023-03-21T08:09:24;98422.88;;;13.05;78.61
34586;BME280;20816;50.950;11.108;2023-03-21T08:11:50;98430.72;;;13.33;78.52
34586;BME280;20816;50.950;11.108;2023-03-21T08:14:17;98430.66;;;13.34;78.47
34586;BME280;20816;50.950;11.108;2023-03-21T08:16:43;98424.84;;;13.25;77.48
34586;BME280;20816;50.950;11.108;2023-03-21T08:19:10;98425.59;;;13.03;78.67
34586;BME280;20816;50.950;11.108;2023-03-21T08:21:36;98419.88;;;13.40;77.46
34586;BME280;20816;50.950;11.108;2023-03-21T08:24:08;98420.69;;;13.42;76.69
34586;BME280;20816;50.950;11.108;2023-03-21T08:26:35;98412.88;;;13.14;77.78
34586;BME280;20816;50.950;11.108;2023-03-21T08:29:01;98412.63;;;13.22;78.20
34586;BME280;20816;50.950;11.108;2023-03-21T08:31:28;98416.91;;;13.50;76.98
34586;BME280;20816;50.950;11.108;2023-03-21T08:33:54;98419.97;;;13.62;76.86
34586;BME280;20816;50.950;11.108;2023-03-21T08:36:28;98415.28;;;13.70;76.89
34586;BME280;20816;50.950;11.108;2023-03-21T08:38:56;98416.91;;;14.42;74.37
34586;BME280;20816;50.950;11.108;2023-03-21T08:41:31;98426.63;;;14.63;73.45
34586;BME280;20816;50.950;11.108;2023-03-21T08:43:58;98421.34;;;14.63;73.13
34586;BME280;20816;50.950;11.108;2023-03-21T08:46:24;98424.31;;;14.10;74.23
34586;BME280;20816;50.950;11.108;2023-03-21T08:48:54;98425.00;;;13.92;74.43
34586;BME280;20816;50.950;11.108;2023-03-21T08:51:21;98419.09;;;14.30;74.89
34586;BME280;20816;50.950;11.108;2023-03-21T08:53:48;98426.38;;;14.25;75.19
34586;BME280;20816;50.950;11.108;2023-03-21T08:56:17;98419.91;;;14.76;73.65
34586;BME280;20816;50.950;11.108;2023-03-21T08:58:43;98416.41;;;14.96;72.23
34586;BME280;20816;50.950;11.108;2023-03-21T09:01:14;98417.09;;;15.22;72.30
34586;BME280;20816;50.950;11.108;2023-03-21T09:03:42;98419.69;;;15.64;71.39
34586;BME280;20816;50.950;11.108;2023-03-21T09:06:10;98422.25;;;15.45;71.56
34586;BME280;20816;50.950;11.108;2023-03-21T09:08:40;98421.13;;;15.51;72.09
34586;BME280;20816;50.950;11.108;2023-03-21T09:11:12;98410.81;;;15.24;71.74
34586;BME280;20816;50.950;11.108;2023-03-21T09:13:42;98411.91;;;15.39;72.18
34586;BME280;20816;50.950;11.108;2023-03-21T09:16:08;98409.28;;;15.78;71.15
34586;BME280;20816;50.950;11.108;2023-03-21T09:18:35;98402.72;;;16.06;70.02
34586;BME280;20816;50.950;11.108;2023-03-21T09:21:16;98410.50;;;15.71;70.99
34586;BME280;20816;50.950;11.108;2023-03-21T09:23:44;98412.63;;;16.21;70.09
34586;BME280;20816;50.950;11.108;2023-03-21T09:26:11;98411.75;;;16.02;69.81
34586;BME280;20816;50.950;11.108;2023-03-21T09:28:39;98416.31;;;15.79;71.14
34586;BME280;20816;50.950;11.108;2023-03-21T09:31:06;98409.25;;;15.59;71.93
34586;BME280;20816;50.950;11.108;2023-03-21T09:33:38;98408.47;;;15.96;70.17
34586;BME280;20816;50.950;11.108;2023-03-21T09:36:07;98393.41;;;16.16;70.11
34586;BME280;20816;50.950;11.108;2023-03-21T09:38:39;98389.56;;;16.40;70.14
34586;BME280;20816;50.950;11.108;2023-03-21T09:46:44;98381.66;;;17.09;68.34
34586;BME280;20816;50.950;11.108;2023-03-21T09:49:21;98382.88;;;18.19;65.87
34586;BME280;20816;50.950;11.108;2023-03-21T09:51:53;98380.03;;;18.69;64.05
34586;BME280;20816;50.950;11.108;2023-03-21T09:54:45;98372.81;;;18.24;63.91
34586;BME280;20816;50.950;11.108;2023-03-21T09:57:27;98385.75;;;18.77;63.85
34586;BME280;20816;50.950;11.108;2023-03-21T09:59:57;98377.47;;;18.20;64.38
34586;BME280;20816;50.950;11.108;2023-03-21T10:02:41;98379.50;;;18.31;64.56
34586;BME280;20816;50.950;11.108;2023-03-21T10:05:16;98366.09;;;18.48;64.07
34586;BME280;20816;50.950;11.108;2023-03-21T10:07:56;98374.16;;;18.79;62.67
34586;BME280;20816;50.950;11.108;2023-03-21T10:10:27;98372.69;;;19.03;62.96
34586;BME280;20816;50.950;11.108;2023-03-21T10:12:55;98369.28;;;19.01;61.86
34586;BME280;20816;50.950;11.108;2023-03-21T10:15:25;98361.31;;;19.15;62.82
34586;BME280;20816;50.950;11.108;2023-03-21T10:17:58;98358.69;;;18.85;63.51
34586;BME280;20816;50.950;11.108;2023-03-21T10:20:31;98358.22;;;18.93;63.26
34586;BME280;20816;50.950;11.108;2023-03-21T10:23:00;98354.47;;;18.19;64.09
34586;BME280;20816;50.950;11.108;2023-03-21T10:25:33;98348.50;;;18.00;64.82
34586;BME280;20816;50.950;11.108;2023-03-21T10:28:01;98342.81;;;18.06;64.90
34586;BME280;20816;50.950;11.108;2023-03-21T10:30:52;98347.03;;;17.61;64.97
34586;BME280;20816;50.950;11.108;2023-03-21T10:33:23;98341.94;;;17.74;65.93
34586;BME280;20816;50.950;11.108;2023-03-21T10:35:58;98341.41;;;17.68;66.16
34586;BME280;20816;50.950;11.108;2023-03-21T10:38:25;98336.78;;;17.71;66.42
34586;BME280;20816;50.950;11.108;2023-03-21T10:40:53;98340.22;;;17.40;66.82
34586;BME280;20816;50.950;11.108;2023-03-21T10:43:31;98332.56;;;17.34;66.92
34586;BME280;20816;50.950;11.108;2023-03-21T10:46:16;98333.41;;;16.49;68.13
34586;BME280;20816;50.950;11.108;2023-03-21T10:48:43;98327.44;;;16.44;68.77
34586;BME280;20816;50.950;11.108;2023-03-21T10:51:20;98331.03;;;16.61;68.77
34586;BME280;20816;50.950;11.108;2023-03-21T10:54:04;98329.38;;;16.94;68.27
34586;BME280;20816;50.950;11.108;2023-03-21T10:56:36;98339.66;;;17.00;68.24
34586;BME280;20816;50.950;11.108;2023-03-21T10:59:05;98332.63;;;16.99;67.77
34586;BME280;20816;50.950;11.108;2023-03-21T11:01:40;98336.59;;;17.08;67.35
34586;BME280;20816;50.950;11.108;2023-03-21T11:04:13;98332.47;;;17.20;66.95
34586;BME280;20816;50.950;11.108;2023-03-21T11:06:43;98337.38;;;17.27;67.50
34586;BME280;20816;50.950;11.108;2023-03-21T11:09:17;98330.13;;;17.14;66.95
34586;BME280;20816;50.950;11.108;2023-03-21T11:14:32;98328.09;;;17.01;67.36
34586;BME280;20816;50.950;11.108;2023-03-21T11:16:59;98332.03;;;16.94;66.94
34586;BME280;20816;50.950;11.108;2023-03-21T11:19:35;98321.41;;;16.77;67.28
34586;BME280;20816;50.950;11.108;2023-03-21T11:22:06;98320.47;;;16.95;68.96
34586;BME280;20816;50.950;11.108;2023-03-21T11:24:34;98332.03;;;16.77;68.42
34586;BME280;20816;50.950;11.108;2023-03-21T11:27:10;98316.84;;;16.44;68.69
34586;BME280;20816;50.950;11.108;2023-03-21T11:29:56;98317.94;;;17.09;67.57
34586;BME280;20816;50.950;11.108;2023-03-21T11:32:32;98301.88;;;18.25;65.36
34586;BME280;20816;50.950;11.108;2023-03-21T11:35:13;98309.75;;;19.16;63.67
34586;BME280;20816;50.950;11.108;2023-03-21T11:37:45;98309.75;;;19.16;62.90
34586;BME280;20816;50.950;11.108;2023-03-21T11:40:29;98308.41;;;19.23;61.51
34586;BME280;20816;50.950;11.108;2023-03-21T11:42:58;98308.59;;;19.35;61.21
34586;BME280;20816;50.950;11.108;2023-03-21T11:45:33;98310.53;;;19.47;61.83
34586;BME280;20816;50.950;11.108;2023-03-21T11:48:10;98294.25;;;19.66;60.45
34586;BME280;20816;50.950;11.108;2023-03-21T11:50:44;98288.28;;;19.89;60.77
34586;BME280;20816;50.950;11.108;2023-03-21T12:06:38;98274.16;;;19.31;61.46
34586;BME280;20816;50.950;11.108;2023-03-21T12:12:37;98268.06;;;19.15;62.02
34586;BME280;20816;50.950;11.108;2023-03-21T12:15:25;98269.75;;;19.73;61.25
34586;BME280;20816;50.950;11.108;2023-03-21T12:18:07;98265.59;;;20.23;59.06
34586;BME280;20816;50.950;11.108;2023-03-21T12:20:41;98261.75;;;20.27;58.87
34586;BME280;20816;50.950;11.108;2023-03-21T12:23:37;98258.88;;;20.57;60.57
34586;BME280;20816;50.950;11.108;2023-03-21T12:37:40;98246.41;;;19.77;58.36
34586;BME280;20816;50.950;11.108;2023-03-21T12:43:23;98256.09;;;19.22;60.84
34586;BME280;20816;50.950;11.108;2023-03-21T12:45:55;98254.53;;;19.18;60.98
34586;BME280;20816;50.950;11.108;2023-03-21T12:48:38;98258.16;;;18.29;61.63
34586;BME280;20816;50.950;11.108;2023-03-21T12:51:31;98260.72;;;18.30;63.16
34586;BME280;20816;50.950;11.108;2023-03-21T12:56:59;98255.69;;;18.26;63.47
34586;BME280;20816;50.950;11.108;2023-03-21T12:59:53;98254.03;;;17.61;65.12
34586;BME280;20816;50.950;11.108;2023-03-21T13:02:39;98254.16;;;17.27;65.58
34586;BME280;20816;50.950;11.108;2023-03-21T13:05:26;98248.75;;;17.13;66.56
34586;BME280;20816;50.950;11.108;2023-03-21T13:10:30;98239.50;;;17.67;65.97
34586;BME280;20816;50.950;11.108;2023-03-21T13:13:11;98229.16;;;17.94;64.92
34586;BME280;20816;50.950;11.108;2023-03-21T13:21:00;98215.69;;;17.81;64.93
34586;BME280;20816;50.950;11.108;2023-03-21T13:23:35;98210.91;;;17.72;64.46
34586;BME280;20816;50.950;11.108;2023-03-21T13:26:03;98216.53;;;17.50;64.69
34586;BME280;20816;50.950;11.108;2023-03-21T13:28:39;98209.34;;;17.36;65.98
34586;BME280;20816;50.950;11.108;2023-03-21T13:31:20;98207.13;;;17.60;65.73
34586;BME280;20816;50.950;11.108;2023-03-21T13:33:49;98197.78;;;17.53;64.33
34586;BME280;20816;50.950;11.108;2023-03-21T13:36:28;98206.28;;;17.44;65.17
34586;BME280;20816;50.950;11.108;2023-03-21T13:39:00;98201.81;;;17.60;64.32
34586;BME280;20816;50.950;11.108;2023-03-21T13:41:42;98204.38;;;17.46;65.36
34586;BME280;20816;50.950;11.108;2023-03-21T13:44:43;98187.59;;;17.46;64.78
34586;BME280;20816;50.950;11.108;2023-03-21T13:47:30;98192.63;;;17.50;65.06
34586;BME280;20816;50.950;11.108;2023-03-21T13:55:35;98186.88;;;17.42;65.29
34586;BME280;20816;50.950;11.108;2023-03-21T14:01:10;98182.44;;;17.27;65.72
34586;BME280;20816;50.950;11.108;2023-03-21T14:03:42;98182.78;;;17.05;65.49
34586;BME280;20816;50.950;11.108;2023-03-21T14:06:10;98188.56;;;16.80;66.93
34586;BME280;20816;50.950;11.108;2023-03-21T14:08:39;98182.84;;;17.03;66.77
34586;BME280;20816;50.950;11.108;2023-03-21T14:11:13;98185.94;;;17.12;66.73
34586;BME280;20816;50.950;11.108;2023-03-21T14:13:43;98171.38;;;17.03;66.58
34586;BME280;20816;50.950;11.108;2023-03-21T14:16:17;98174.00;;;16.87;66.42
34586;BME280;20816;50.950;11.108;2023-03-21T14:19:03;98172.78;;;16.60;67.85
34586;BME280;20816;50.950;11.108;2023-03-21T14:21:32;98176.72;;;16.70;67.47
34586;BME280;20816;50.950;11.108;2023-03-21T14:24:06;98172.97;;;16.57;67.52
34586;BME280;20816;50.950;11.108;2023-03-21T14:26:47;98166.28;;;16.32;68.22
34586;BME280;20816;50.950;11.108;2023-03-21T14:29:40;98164.72;;;16.28;68.62
34586;BME280;20816;50.950;11.108;2023-03-21T14:32:06;98166.75;;;16.40;68.68
34586;BME280;20816;50.950;11.108;2023-03-21T14:34:34;98160.22;;;16.63;67.98
34586;BME280;20816;50.950;11.108;2023-03-21T14:37:01;98166.88;;;16.54;68.40
34586;BME280;20816;50.950;11.108;2023-03-21T14:39:32;98165.44;;;16.32;68.99
34586;BME280;20816;50.950;11.108;2023-03-21T14:42:04;98163.91;;;16.43;69.61
34586;BME280;20816;50.950;11.108;2023-03-21T14:44:32;98153.38;;;16.42;68.45